sensor_id;sensor_type;location;lat;lon;timestamp;temperature;humidity
12504;DHT22;6316;48.118;-1.690;2024-03-23T00:51:56;7.80;99.90
12504;DHT22;6316;48.118;-1.690;2024-03-23T00:54:21;7.80;99.90
12504;DHT22;6316;48.118;-1.690;2024-03-23T00:56:47;7.80;99.90
12504;DHT22;6316;48.118;-1.690;2024-03-23T00:59:12;7.80;99.90
12504;DHT22;6316;48.118;-1.690;2024-03-23T01:01:39;7.80;99.90
12504;DHT22;6316;48.118;-1.690;2024-03-23T01:04:04;7.80;99.90
12504;DHT22;6316;48.118;-1.690;2024-03-23T01:06:30;7.80;99.90
12504;DHT22;6316;48.118;-1.690;2024-03-23T01:08:56;7.70;99.90
12504;DHT22;6316;48.118;-1.690;2024-03-23T01:11:21;7.70;99.90
12504;DHT22;6316;48.118;-1.690;2024-03-23T01:13:47;7.70;99.90
12504;DHT22;6316;48.118;-1.690;2024-03-23T01:16:13;7.70;99.90
12504;DHT22;6316;48.118;-1.690;2024-03-23T01:18:38;7.70;99.90
12504;DHT22;6316;48.118;-1.690;2024-03-23T01:21:04;7.70;99.90
12504;DHT22;6316;48.118;-1.690;2024-03-23T01:23:30;7.70;99.90
12504;DHT22;6316;48.118;-1.690;2024-03-23T01:25:55;7.80;99.90
12504;DHT22;6316;48.118;-1.690;2024-03-23T01:28:21;7.80;99.90
12504;DHT22;6316;48.118;-1.690;2024-03-23T01:30:48;7.80;99.90
12504;DHT22;6316;48.118;-1.690;2024-03-23T01:33:13;7.70;99.90
12504;DHT22;6316;48.118;-1.690;2024-03-23T01:35:39;7.80;99.90
12504;DHT22;6316;48.118;-1.690;2024-03-23T01:38:05;7.70;99.90
12504;DHT22;6316;48.118;-1.690;2024-03-23T01:40:32;7.70;99.90
12504;DHT22;6316;48.118;-1.690;2024-03-23T01:42:59;7.70;99.90
12504;DHT22;6316;48.118;-1.690;2024-03-23T01:45:27;7.60;99.90
12504;DHT22;6316;48.118;-1.690;2024-03-23T01:47:53;7.60;99.90
12504;DHT22;6316;48.118;-1.690;2024-03-23T01:50:19;7.60;99.90
12504;DHT22;6316;48.118;-1.690;2024-03-23T01:52:46;7.50;99.90
12504;DHT22;6316;48.118;-1.690;2024-03-23T01:55:12;7.40;99.90
12504;DHT22;6316;48.118;-1.690;2024-03-23T01:57:37;7.40;99.90
12504;DHT22;6316;48.118;-1.690;2024-03-23T02:00:03;7.40;99.90
12504;DHT22;6316;48.118;-1.690;2024-03-23T02:02:29;7.40;99.90
12504;DHT22;6316;48.118;-1.690;2024-03-23T02:04:55;7.40;99.90
12504;DHT22;6316;48.118;-1.690;2024-03-23T02:07:20;7.40;99.90
12504;DHT22;6316;48.118;-1.690;2024-03-23T02:09:46;7.30;99.90
12504;DHT22;6316;48.118;-1.690;2024-03-23T02:12:12;7.30;99.90
12504;DHT22;6316;48.118;-1.690;2024-03-23T02:14:38;7.30;99.90
12504;DHT22;6316;48.118;-1.690;2024-03-23T02:17:03;7.30;99.90
12504;DHT22;6316;48.118;-1.690;2024-03-23T02:19:29;7.30;99.90
12504;DHT22;6316;48.118;-1.690;2024-03-23T02:21:54;7.20;99.90
12504;DHT22;6316;48.118;-1.690;2024-03-23T02:24:20;7.20;99.90
12504;DHT22;6316;48.118;-1.690;2024-03-23T02:26:46;7.20;99.90
12504;DHT22;6316;48.118;-1.690;2024-03-23T02:29:14;7.20;99.90
12504;DHT22;6316;48.118;-1.690;2024-03-23T02:31:39;7.20;99.90
12504;DHT22;6316;48.118;-1.690;2024-03-23T02:34:05;7.20;99.90
12504;DHT22;6316;48.118;-1.690;2024-03-23T02:36:30;7.20;99.90
12504;DHT22;6316;48.118;-1.690;2024-03-23T02:38:56;7.20;99.90
12504;DHT22;6316;48.118;-1.690;2024-03-23T02:41:22;7.20;99.90
12504;DHT22;6316;48.118;-1.690;2024-03-23T02:43:52;7.20;99.90
12504;DHT22;6316;48.118;-1.690;2024-03-23T02:46:18;7.20;99.90
12504;DHT22;6316;48.118;-1.690;2024-03-23T02:48:43;7.20;99.90
12504;DHT22;6316;48.118;-1.690;2024-03-23T02:51:09;7.10;99.90
12504;DHT22;6316;48.118;-1.690;2024-03-23T02:53:35;7.10;99.90
12504;DHT22;6316;48.118;-1.690;2024-03-23T02:56:00;7.10;99.90
12504;DHT22;6316;48.118;-1.690;2024-03-23T02:58:26;7.10;99.90
12504;DHT22;6316;48.118;-1.690;2024-03-23T03:00:52;7.10;99.90
12504;DHT22;6316;48.118;-1.690;2024-03-23T03:03:17;7.20;99.90
12504;DHT22;6316;48.118;-1.690;2024-03-23T03:05:43;7.20;99.90
12504;DHT22;6316;48.118;-1.690;2024-03-23T03:08:09;7.30;99.90
12504;DHT22;6316;48.118;-1.690;2024-03-23T03:10:34;7.40;99.90
12504;DHT22;6316;48.118;-1.690;2024-03-23T03:13:02;7.50;99.90
12504;DHT22;6316;48.118;-1.690;2024-03-23T03:15:27;7.50;99.90
12504;DHT22;6316;48.118;-1.690;2024-03-23T03:17:53;7.50;99.90
12504;DHT22;6316;48.118;-1.690;2024-03-23T03:20:19;7.50;99.90
12504;DHT22;6316;48.118;-1.690;2024-03-23T03:22:47;7.60;99.90
12504;DHT22;6316;48.118;-1.690;2024-03-23T03:25:13;7.60;99.90
12504;DHT22;6316;48.118;-1.690;2024-03-23T03:27:38;7.60;99.90
12504;DHT22;6316;48.118;-1.690;2024-03-23T03:30:05;7.60;99.90
12504;DHT22;6316;48.118;-1.690;2024-03-23T03:32:32;7.60;99.90
12504;DHT22;6316;48.118;-1.690;2024-03-23T03:34:58;7.60;99.90
12504;DHT22;6316;48.118;-1.690;2024-03-23T03:37:24;7.60;99.90
12504;DHT22;6316;48.118;-1.690;2024-03-23T03:39:50;7.60;99.90
12504;DHT22;6316;48.118;-1.690;2024-03-23T03:42:15;7.50;99.90
12504;DHT22;6316;48.118;-1.690;2024-03-23T03:44:41;7.50;99.90
12504;DHT22;6316;48.118;-1.690;2024-03-23T03:47:07;7.50;99.90
12504;DHT22;6316;48.118;-1.690;2024-03-23T03:49:32;7.40;99.90
12504;DHT22;6316;48.118;-1.690;2024-03-23T03:51:58;7.40;99.90
12504;DHT22;6316;48.118;-1.690;2024-03-23T03:54:24;7.40;99.90
12504;DHT22;6316;48.118;-1.690;2024-03-23T03:56:49;7.40;99.90
12504;DHT22;6316;48.118;-1.690;2024-03-23T03:59:15;7.30;99.90
12504;DHT22;6316;48.118;-1.690;2024-03-23T04:01:41;7.30;99.90
12504;DHT22;6316;48.118;-1.690;2024-03-23T04:04:06;7.30;99.90
12504;DHT22;6316;48.118;-1.690;2024-03-23T04:06:32;7.30;99.90
12504;DHT22;6316;48.118;-1.690;2024-03-23T04:08:58;7.20;99.90
12504;DHT22;6316;48.118;-1.690;2024-03-23T04:11:24;7.20;99.90
12504;DHT22;6316;48.118;-1.690;2024-03-23T04:13:50;7.20;99.90
12504;DHT22;6316;48.118;-1.690;2024-03-23T04:16:29;7.10;99.90
12504;DHT22;6316;48.118;-1.690;2024-03-23T04:18:55;7.10;99.90
12504;DHT22;6316;48.118;-1.690;2024-03-23T04:21:21;7.20;99.90
12504;DHT22;6316;48.118;-1.690;2024-03-23T04:23:47;7.10;99.90
12504;DHT22;6316;48.118;-1.690;2024-03-23T04:26:13;7.10;99.90
12504;DHT22;6316;48.118;-1.690;2024-03-23T04:28:39;7.00;99.90
12504;DHT22;6316;48.118;-1.690;2024-03-23T04:31:05;7.00;99.90
12504;DHT22;6316;48.118;-1.690;2024-03-23T04:33:31;7.00;99.90
12504;DHT22;6316;48.118;-1.690;2024-03-23T04:35:56;7.00;99.90
12504;DHT22;6316;48.118;-1.690;2024-03-23T04:38:22;7.00;99.90
12504;DHT22;6316;48.118;-1.690;2024-03-23T04:40:58;7.00;99.90
12504;DHT22;6316;48.118;-1.690;2024-03-23T04:43:24;6.90;99.90
12504;DHT22;6316;48.118;-1.690;2024-03-23T04:45:50;6.90;99.90
12504;DHT22;6316;48.118;-1.690;2024-03-23T04:48:16;6.80;99.90
12504;DHT22;6316;48.118;-1.690;2024-03-23T04:50:41;6.80;99.90
12504;DHT22;6316;48.118;-1.690;2024-03-23T04:53:07;6.80;99.90
12504;DHT22;6316;48.118;-1.690;2024-03-23T04:55:33;6.90;99.90
12504;DHT22;6316;48.118;-1.690;2024-03-23T04:57:58;6.90;99.90
12504;DHT22;6316;48.118;-1.690;2024-03-23T05:00:25;7.00;99.90
12504;DHT22;6316;48.118;-1.690;2024-03-23T05:02:50;6.90;99.90
12504;DHT22;6316;48.118;-1.690;2024-03-23T05:05:16;7.00;99.90
12504;DHT22;6316;48.118;-1.690;2024-03-23T05:07:42;7.00;99.90
12504;DHT22;6316;48.118;-1.690;2024-03-23T05:10:09;7.00;99.90
12504;DHT22;6316;48.118;-1.690;2024-03-23T05:12:39;6.90;99.90
12504;DHT22;6316;48.118;-1.690;2024-03-23T05:15:05;6.90;99.90
12504;DHT22;6316;48.118;-1.690;2024-03-23T05:17:32;6.90;99.90
12504;DHT22;6316;48.118;-1.690;2024-03-23T05:19:58;6.80;99.90
12504;DHT22;6316;48.118;-1.690;2024-03-23T05:22:24;6.80;99.90
12504;DHT22;6316;48.118;-1.690;2024-03-23T05:24:49;6.80;99.90
12504;DHT22;6316;48.118;-1.690;2024-03-23T05:27:15;6.70;99.90
12504;DHT22;6316;48.118;-1.690;2024-03-23T05:29:41;6.70;99.90
12504;DHT22;6316;48.118;-1.690;2024-03-23T05:32:07;6.70;99.90
12504;DHT22;6316;48.118;-1.690;2024-03-23T05:34:32;6.60;99.90
12504;DHT22;6316;48.118;-1.690;2024-03-23T05:36:58;6.60;99.90
12504;DHT22;6316;48.118;-1.690;2024-03-23T05:39:24;6.60;99.90
12504;DHT22;6316;48.118;-1.690;2024-03-23T05:41:49;6.60;99.90
12504;DHT22;6316;48.118;-1.690;2024-03-23T05:44:15;6.50;99.90
12504;DHT22;6316;48.118;-1.690;2024-03-23T05:46:41;6.50;99.90
12504;DHT22;6316;48.118;-1.690;2024-03-23T05:49:07;6.50;99.90
12504;DHT22;6316;48.118;-1.690;2024-03-23T05:51:33;6.50;99.90
12504;DHT22;6316;48.118;-1.690;2024-03-23T05:53:59;6.50;99.90
12504;DHT22;6316;48.118;-1.690;2024-03-23T05:56:24;6.30;99.90
12504;DHT22;6316;48.118;-1.690;2024-03-23T05:58:51;6.40;99.90
12504;DHT22;6316;48.118;-1.690;2024-03-23T06:01:17;6.50;99.90
12504;DHT22;6316;48.118;-1.690;2024-03-23T06:03:43;6.40;99.90
12504;DHT22;6316;48.118;-1.690;2024-03-23T06:06:10;6.40;99.90
12504;DHT22;6316;48.118;-1.690;2024-03-23T06:08:37;6.40;99.90
12504;DHT22;6316;48.118;-1.690;2024-03-23T06:11:04;6.40;99.90
12504;DHT22;6316;48.118;-1.690;2024-03-23T06:13:33;6.40;99.90
12504;DHT22;6316;48.118;-1.690;2024-03-23T06:15:59;6.40;99.90
12504;DHT22;6316;48.118;-1.690;2024-03-23T06:18:25;6.50;99.90
12504;DHT22;6316;48.118;-1.690;2024-03-23T06:20:51;6.40;99.90
12504;DHT22;6316;48.118;-1.690;2024-03-23T06:23:16;6.40;99.90
12504;DHT22;6316;48.118;-1.690;2024-03-23T06:25:42;6.50;99.90
12504;DHT22;6316;48.118;-1.690;2024-03-23T06:28:08;6.50;99.90
12504;DHT22;6316;48.118;-1.690;2024-03-23T06:30:34;6.50;99.90
12504;DHT22;6316;48.118;-1.690;2024-03-23T06:33:00;6.60;99.90
12504;DHT22;6316;48.118;-1.690;2024-03-23T06:35:26;6.60;99.90
12504;DHT22;6316;48.118;-1.690;2024-03-23T06:37:52;6.60;99.90
12504;DHT22;6316;48.118;-1.690;2024-03-23T06:40:18;6.60;99.90
12504;DHT22;6316;48.118;-1.690;2024-03-23T06:42:43;6.70;99.90
12504;DHT22;6316;48.118;-1.690;2024-03-23T06:45:09;6.70;99.90
12504;DHT22;6316;48.118;-1.690;2024-03-23T06:47:35;6.70;99.90
12504;DHT22;6316;48.118;-1.690;2024-03-23T06:50:03;6.80;99.90
12504;DHT22;6316;48.118;-1.690;2024-03-23T06:52:29;6.80;99.90
12504;DHT22;6316;48.118;-1.690;2024-03-23T06:54:55;6.90;99.90
12504;DHT22;6316;48.118;-1.690;2024-03-23T06:57:20;6.90;99.90
12504;DHT22;6316;48.118;-1.690;2024-03-23T06:59:46;7.00;99.90
12504;DHT22;6316;48.118;-1.690;2024-03-23T07:02:12;7.10;99.90
12504;DHT22;6316;48.118;-1.690;2024-03-23T07:04:37;7.10;99.90
12504;DHT22;6316;48.118;-1.690;2024-03-23T07:07:05;7.20;99.90
12504;DHT22;6316;48.118;-1.690;2024-03-23T07:09:30;7.40;99.90
12504;DHT22;6316;48.118;-1.690;2024-03-23T07:11:57;8.10;99.90
12504;DHT22;6316;48.118;-1.690;2024-03-23T07:14:23;9.40;99.90
12504;DHT22;6316;48.118;-1.690;2024-03-23T07:16:49;10.70;99.90
12504;DHT22;6316;48.118;-1.690;2024-03-23T07:19:16;12.00;99.90
12504;DHT22;6316;48.118;-1.690;2024-03-23T07:21:43;13.10;99.90
12504;DHT22;6316;48.118;-1.690;2024-03-23T07:24:09;14.10;99.90
12504;DHT22;6316;48.118;-1.690;2024-03-23T07:26:34;14.80;99.90
12504;DHT22;6316;48.118;-1.690;2024-03-23T07:29:00;15.60;99.90
12504;DHT22;6316;48.118;-1.690;2024-03-23T07:31:26;16.20;99.90
12504;DHT22;6316;48.118;-1.690;2024-03-23T07:33:51;16.80;99.90
12504;DHT22;6316;48.118;-1.690;2024-03-23T07:36:17;17.40;99.90
12504;DHT22;6316;48.118;-1.690;2024-03-23T07:38:43;17.90;99.90
12504;DHT22;6316;48.118;-1.690;2024-03-23T07:41:18;18.30;99.90
12504;DHT22;6316;48.118;-1.690;2024-03-23T07:43:44;18.60;99.90
12504;DHT22;6316;48.118;-1.690;2024-03-23T07:46:10;18.90;99.90
12504;DHT22;6316;48.118;-1.690;2024-03-23T07:48:37;19.20;99.90
12504;DHT22;6316;48.118;-1.690;2024-03-23T07:51:08;19.50;99.90
12504;DHT22;6316;48.118;-1.690;2024-03-23T07:53:36;19.70;99.90
12504;DHT22;6316;48.118;-1.690;2024-03-23T07:56:09;19.90;99.90
12504;DHT22;6316;48.118;-1.690;2024-03-23T07:58:38;19.90;99.90
12504;DHT22;6316;48.118;-1.690;2024-03-23T08:01:09;20.00;99.90
12504;DHT22;6316;48.118;-1.690;2024-03-23T08:03:35;20.10;99.90
12504;DHT22;6316;48.118;-1.690;2024-03-23T08:08:37;20.40;99.90
12504;DHT22;6316;48.118;-1.690;2024-03-23T08:11:03;20.40;99.90
12504;DHT22;6316;48.118;-1.690;2024-03-23T08:13:30;20.40;99.90
12504;DHT22;6316;48.118;-1.690;2024-03-23T08:15:59;20.40;99.90
12504;DHT22;6316;48.118;-1.690;2024-03-23T08:18:25;20.30;99.90
12504;DHT22;6316;48.118;-1.690;2024-03-23T08:21:04;20.30;99.90
12504;DHT22;6316;48.118;-1.690;2024-03-23T08:23:32;20.20;99.90
12504;DHT22;6316;48.118;-1.690;2024-03-23T08:26:03;20.00;99.90
12504;DHT22;6316;48.118;-1.690;2024-03-23T08:28:29;19.70;99.90
12504;DHT22;6316;48.118;-1.690;2024-03-23T08:30:55;19.30;99.90
12504;DHT22;6316;48.118;-1.690;2024-03-23T08:33:22;19.00;99.90
12504;DHT22;6316;48.118;-1.690;2024-03-23T08:35:56;18.40;99.90
12504;DHT22;6316;48.118;-1.690;2024-03-23T08:38:23;17.90;99.90
12504;DHT22;6316;48.118;-1.690;2024-03-23T08:40:59;17.40;99.90
12504;DHT22;6316;48.118;-1.690;2024-03-23T08:43:25;16.80;99.90
12504;DHT22;6316;48.118;-1.690;2024-03-23T08:45:52;16.30;99.90
12504;DHT22;6316;48.118;-1.690;2024-03-23T08:48:18;15.90;99.90
12504;DHT22;6316;48.118;-1.690;2024-03-23T08:50:46;15.40;99.90
12504;DHT22;6316;48.118;-1.690;2024-03-23T08:53:15;15.00;99.90
12504;DHT22;6316;48.118;-1.690;2024-03-23T08:55:41;14.60;99.90
12504;DHT22;6316;48.118;-1.690;2024-03-23T08:58:06;14.30;99.90
12504;DHT22;6316;48.118;-1.690;2024-03-23T09:00:34;14.00;99.90
12504;DHT22;6316;48.118;-1.690;2024-03-23T09:02:59;13.70;99.90
12504;DHT22;6316;48.118;-1.690;2024-03-23T09:05:27;13.50;99.90
12504;DHT22;6316;48.118;-1.690;2024-03-23T09:07:54;13.20;99.90
12504;DHT22;6316;48.118;-1.690;2024-03-23T09:10:19;13.10;99.90
12504;DHT22;6316;48.118;-1.690;2024-03-23T09:12:45;12.90;99.90
12504;DHT22;6316;48.118;-1.690;2024-03-23T09:15:10;12.80;99.90
12504;DHT22;6316;48.118;-1.690;2024-03-23T09:17:36;12.70;99.90
12504;DHT22;6316;48.118;-1.690;2024-03-23T09:20:02;12.60;99.90
12504;DHT22;6316;48.118;-1.690;2024-03-23T09:22:29;12.50;99.90
12504;DHT22;6316;48.118;-1.690;2024-03-23T09:24:55;12.50;99.90
12504;DHT22;6316;48.118;-1.690;2024-03-23T09:27:21;12.40;99.90
12504;DHT22;6316;48.118;-1.690;2024-03-23T09:29:46;12.30;99.90
12504;DHT22;6316;48.118;-1.690;2024-03-23T09:32:12;12.30;99.90
12504;DHT22;6316;48.118;-1.690;2024-03-23T09:34:37;12.30;99.90
12504;DHT22;6316;48.118;-1.690;2024-03-23T09:37:03;12.20;99.90
12504;DHT22;6316;48.118;-1.690;2024-03-23T09:39:29;12.20;99.90
12504;DHT22;6316;48.118;-1.690;2024-03-23T09:41:57;12.20;99.90
12504;DHT22;6316;48.118;-1.690;2024-03-23T09:44:24;12.20;99.90
12504;DHT22;6316;48.118;-1.690;2024-03-23T09:46:51;12.20;99.90
12504;DHT22;6316;48.118;-1.690;2024-03-23T09:49:17;12.20;99.90
12504;DHT22;6316;48.118;-1.690;2024-03-23T09:51:42;12.20;99.90
12504;DHT22;6316;48.118;-1.690;2024-03-23T09:54:08;12.20;99.90
12504;DHT22;6316;48.118;-1.690;2024-03-23T09:56:34;12.20;99.90
12504;DHT22;6316;48.118;-1.690;2024-03-23T09:59:03;12.30;99.90
12504;DHT22;6316;48.118;-1.690;2024-03-23T10:01:32;12.30;99.90
12504;DHT22;6316;48.118;-1.690;2024-03-23T10:03:57;12.30;99.90
12504;DHT22;6316;48.118;-1.690;2024-03-23T10:06:23;12.30;99.90
12504;DHT22;6316;48.118;-1.690;2024-03-23T10:08:52;12.30;99.90
12504;DHT22;6316;48.118;-1.690;2024-03-23T10:11:20;12.30;99.90
12504;DHT22;6316;48.118;-1.690;2024-03-23T10:13:46;12.40;99.90
12504;DHT22;6316;48.118;-1.690;2024-03-23T10:16:21;12.30;99.90
12504;DHT22;6316;48.118;-1.690;2024-03-23T10:18:47;12.30;99.90
12504;DHT22;6316;48.118;-1.690;2024-03-23T10:21:14;12.30;99.90
12504;DHT22;6316;48.118;-1.690;2024-03-23T10:23:44;12.40;99.90
12504;DHT22;6316;48.118;-1.690;2024-03-23T10:26:30;12.40;99.90
12504;DHT22;6316;48.118;-1.690;2024-03-23T10:29:00;12.50;99.90
12504;DHT22;6316;48.118;-1.690;2024-03-23T10:31:30;12.50;99.90
12504;DHT22;6316;48.118;-1.690;2024-03-23T10:33:56;12.60;99.90
12504;DHT22;6316;48.118;-1.690;2024-03-23T10:36:23;12.60;99.90
12504;DHT22;6316;48.118;-1.690;2024-03-23T10:38:54;12.70;99.90
12504;DHT22;6316;48.118;-1.690;2024-03-23T10:41:20;12.90;99.90
12504;DHT22;6316;48.118;-1.690;2024-03-23T10:43:47;12.90;99.90
12504;DHT22;6316;48.118;-1.690;2024-03-23T10:46:13;13.00;99.90
12504;DHT22;6316;48.118;-1.690;2024-03-23T10:48:38;13.10;99.90
12504;DHT22;6316;48.118;-1.690;2024-03-23T10:51:07;13.10;99.90
12504;DHT22;6316;48.118;-1.690;2024-03-23T10:53:34;13.20;99.90
12504;DHT22;6316;48.118;-1.690;2024-03-23T10:56:00;13.20;99.90
12504;DHT22;6316;48.118;-1.690;2024-03-23T10:58:39;13.30;99.90
12504;DHT22;6316;48.118;-1.690;2024-03-23T11:01:06;13.40;99.90
12504;DHT22;6316;48.118;-1.690;2024-03-23T11:03:35;13.50;99.90
12504;DHT22;6316;48.118;-1.690;2024-03-23T11:06:05;13.50;99.90
12504;DHT22;6316;48.118;-1.690;2024-03-23T11:08:35;13.60;99.90
12504;DHT22;6316;48.118;-1.690;2024-03-23T11:11:18;13.70;99.90
12504;DHT22;6316;48.118;-1.690;2024-03-23T11:13:47;13.80;99.90
12504;DHT22;6316;48.118;-1.690;2024-03-23T11:16:26;13.90;99.90
12504;DHT22;6316;48.118;-1.690;2024-03-23T11:22:10;13.80;99.90
12504;DHT22;6316;48.118;-1.690;2024-03-23T11:24:36;13.70;99.90
12504;DHT22;6316;48.118;-1.690;2024-03-23T11:27:02;13.60;99.90
12504;DHT22;6316;48.118;-1.690;2024-03-23T11:29:40;13.70;99.90
12504;DHT22;6316;48.118;-1.690;2024-03-23T11:32:10;13.80;99.90
12504;DHT22;6316;48.118;-1.690;2024-03-23T11:34:35;13.90;99.90
12504;DHT22;6316;48.118;-1.690;2024-03-23T11:37:05;14.00;99.90
12504;DHT22;6316;48.118;-1.690;2024-03-23T11:39:31;13.90;99.90
12504;DHT22;6316;48.118;-1.690;2024-03-23T11:41:57;13.80;99.90
12504;DHT22;6316;48.118;-1.690;2024-03-23T11:44:25;13.80;99.90
12504;DHT22;6316;48.118;-1.690;2024-03-23T11:46:51;13.70;99.90
12504;DHT22;6316;48.118;-1.690;2024-03-23T11:49:27;13.70;99.90
12504;DHT22;6316;48.118;-1.690;2024-03-23T11:51:54;13.80;99.90
12504;DHT22;6316;48.118;-1.690;2024-03-23T11:54:21;13.90;99.90
12504;DHT22;6316;48.118;-1.690;2024-03-23T11:59:38;14.10;99.90
12504;DHT22;6316;48.118;-1.690;2024-03-23T12:02:08;14.20;99.90
12504;DHT22;6316;48.118;-1.690;2024-03-23T12:04:34;14.20;99.90
12504;DHT22;6316;48.118;-1.690;2024-03-23T12:09:40;14.10;99.90
12504;DHT22;6316;48.118;-1.690;2024-03-23T12:12:17;14.10;99.90
12504;DHT22;6316;48.118;-1.690;2024-03-23T12:15:04;14.20;99.90
12504;DHT22;6316;48.118;-1.690;2024-03-23T12:17:31;14.10;99.90
12504;DHT22;6316;48.118;-1.690;2024-03-23T12:19:57;14.10;99.90
12504;DHT22;6316;48.118;-1.690;2024-03-23T12:22:24;14.20;99.90
12504;DHT22;6316;48.118;-1.690;2024-03-23T12:24:49;14.20;99.90
12504;DHT22;6316;48.118;-1.690;2024-03-23T12:27:15;14.30;99.90
12504;DHT22;6316;48.118;-1.690;2024-03-23T12:29:41;14.40;99.90
12504;DHT22;6316;48.118;-1.690;2024-03-23T12:32:12;14.40;99.90
12504;DHT22;6316;48.118;-1.690;2024-03-23T12:34:39;14.40;99.90
12504;DHT22;6316;48.118;-1.690;2024-03-23T12:37:05;14.30;99.90
12504;DHT22;6316;48.118;-1.690;2024-03-23T12:39:31;14.10;99.90
12504;DHT22;6316;48.118;-1.690;2024-03-23T12:41:57;14.00;99.90
12504;DHT22;6316;48.118;-1.690;2024-03-23T12:44:23;13.90;99.90
12504;DHT22;6316;48.118;-1.690;2024-03-23T12:46:48;13.90;99.90
12504;DHT22;6316;48.118;-1.690;2024-03-23T12:49:14;13.90;99.90
12504;DHT22;6316;48.118;-1.690;2024-03-23T12:51:48;14.00;99.90
12504;DHT22;6316;48.118;-1.690;2024-03-23T12:54:18;14.00;99.90
12504;DHT22;6316;48.118;-1.690;2024-03-23T12:56:44;14.00;99.90
12504;DHT22;6316;48.118;-1.690;2024-03-23T12:59:10;14.10;99.90
12504;DHT22;6316;48.118;-1.690;2024-03-23T13:01:36;14.00;99.90
12504;DHT22;6316;48.118;-1.690;2024-03-23T13:04:02;14.00;99.90
12504;DHT22;6316;48.118;-1.690;2024-03-23T13:06:28;14.00;99.90
12504;DHT22;6316;48.118;-1.690;2024-03-23T13:08:57;14.00;99.90
12504;DHT22;6316;48.118;-1.690;2024-03-23T13:11:23;14.00;99.90
12504;DHT22;6316;48.118;-1.690;2024-03-23T13:13:49;14.00;99.90
12504;DHT22;6316;48.118;-1.690;2024-03-23T13:16:14;14.10;99.90
12504;DHT22;6316;48.118;-1.690;2024-03-23T13:18:40;14.10;99.90
12504;DHT22;6316;48.118;-1.690;2024-03-23T13:21:06;14.10;99.90
12504;DHT22;6316;48.118;-1.690;2024-03-23T13:23:31;14.20;99.90
12504;DHT22;6316;48.118;-1.690;2024-03-23T13:25:58;14.20;99.90
12504;DHT22;6316;48.118;-1.690;2024-03-23T13:28:23;14.20;99.90
12504;DHT22;6316;48.118;-1.690;2024-03-23T13:30:54;14.20;99.90
12504;DHT22;6316;48.118;-1.690;2024-03-23T13:33:19;14.20;99.90
12504;DHT22;6316;48.118;-1.690;2024-03-23T13:35:55;14.20;99.90
12504;DHT22;6316;48.118;-1.690;2024-03-23T13:38:22;14.20;99.90
12504;DHT22;6316;48.118;-1.690;2024-03-23T13:43:17;14.20;99.90
12504;DHT22;6316;48.118;-1.690;2024-03-23T13:45:43;14.10;99.90
12504;DHT22;6316;48.118;-1.690;2024-03-23T13:48:08;14.00;99.90
12504;DHT22;6316;48.118;-1.690;2024-03-23T13:50:34;13.60;99.90
12504;DHT22;6316;48.118;-1.690;2024-03-23T13:53:00;13.60;99.90
12504;DHT22;6316;48.118;-1.690;2024-03-23T13:55:25;13.50;99.90
12504;DHT22;6316;48.118;-1.690;2024-03-23T13:57:51;13.40;99.90
12504;DHT22;6316;48.118;-1.690;2024-03-23T14:00:17;13.30;99.90
12504;DHT22;6316;48.118;-1.690;2024-03-23T14:02:44;13.20;99.90
12504;DHT22;6316;48.118;-1.690;2024-03-23T14:05:10;13.10;99.90
12504;DHT22;6316;48.118;-1.690;2024-03-23T14:07:37;13.10;99.90
12504;DHT22;6316;48.118;-1.690;2024-03-23T14:10:03;13.10;99.90
12504;DHT22;6316;48.118;-1.690;2024-03-23T14:12:32;13.20;99.90
12504;DHT22;6316;48.118;-1.690;2024-03-23T14:14:57;13.20;99.90
12504;DHT22;6316;48.118;-1.690;2024-03-23T14:17:23;13.30;99.90
12504;DHT22;6316;48.118;-1.690;2024-03-23T14:19:48;13.30;99.90
12504;DHT22;6316;48.118;-1.690;2024-03-23T14:22:15;13.40;99.90
12504;DHT22;6316;48.118;-1.690;2024-03-23T14:24:45;13.40;99.90
12504;DHT22;6316;48.118;-1.690;2024-03-23T14:27:10;13.40;99.90
12504;DHT22;6316;48.118;-1.690;2024-03-23T14:29:36;13.40;99.90
12504;DHT22;6316;48.118;-1.690;2024-03-23T14:32:02;13.40;99.90
12504;DHT22;6316;48.118;-1.690;2024-03-23T14:34:27;13.50;99.90
12504;DHT22;6316;48.118;-1.690;2024-03-23T14:36:56;13.50;99.90
12504;DHT22;6316;48.118;-1.690;2024-03-23T14:39:24;13.50;99.90
12504;DHT22;6316;48.118;-1.690;2024-03-23T14:41:50;13.40;99.90
12504;DHT22;6316;48.118;-1.690;2024-03-23T14:44:16;13.30;99.90
12504;DHT22;6316;48.118;-1.690;2024-03-23T14:46:42;13.30;99.90
12504;DHT22;6316;48.118;-1.690;2024-03-23T14:49:08;13.20;99.90
12504;DHT22;6316;48.118;-1.690;2024-03-23T14:51:34;13.10;99.90
12504;DHT22;6316;48.118;-1.690;2024-03-23T14:54:00;13.10;99.90
12504;DHT22;6316;48.118;-1.690;2024-03-23T14:56:25;13.00;99.90
12504;DHT22;6316;48.118;-1.690;2024-03-23T14:58:54;13.00;99.90
12504;DHT22;6316;48.118;-1.690;2024-03-23T15:01:21;12.90;99.90
12504;DHT22;6316;48.118;-1.690;2024-03-23T15:03:46;12.90;99.90
12504;DHT22;6316;48.118;-1.690;2024-03-23T15:06:13;12.90;99.90
12504;DHT22;6316;48.118;-1.690;2024-03-23T15:08:38;12.90;99.90
12504;DHT22;6316;48.118;-1.690;2024-03-23T15:11:05;12.90;99.90
12504;DHT22;6316;48.118;-1.690;2024-03-23T15:13:33;13.00;99.90
12504;DHT22;6316;48.118;-1.690;2024-03-23T15:15:58;13.10;99.90
12504;DHT22;6316;48.118;-1.690;2024-03-23T15:18:24;13.10;99.90
12504;DHT22;6316;48.118;-1.690;2024-03-23T15:20:58;13.20;99.90
12504;DHT22;6316;48.118;-1.690;2024-03-23T15:23:31;13.20;99.90
12504;DHT22;6316;48.118;-1.690;2024-03-23T15:26:00;13.30;99.90
12504;DHT22;6316;48.118;-1.690;2024-03-23T15:28:27;13.40;99.90
12504;DHT22;6316;48.118;-1.690;2024-03-23T15:31:10;13.40;99.90
12504;DHT22;6316;48.118;-1.690;2024-03-23T15:33:36;13.40;99.90
12504;DHT22;6316;48.118;-1.690;2024-03-23T15:36:04;13.40;99.90
12504;DHT22;6316;48.118;-1.690;2024-03-23T15:38:34;13.30;99.90
12504;DHT22;6316;48.118;-1.690;2024-03-23T15:40:59;13.20;99.90
12504;DHT22;6316;48.118;-1.690;2024-03-23T15:43:25;13.10;99.90
12504;DHT22;6316;48.118;-1.690;2024-03-23T15:45:59;13.00;99.90
12504;DHT22;6316;48.118;-1.690;2024-03-23T15:48:27;12.80;99.90
12504;DHT22;6316;48.118;-1.690;2024-03-23T15:51:03;12.70;99.90
12504;DHT22;6316;48.118;-1.690;2024-03-23T15:53:31;12.60;99.90
12504;DHT22;6316;48.118;-1.690;2024-03-23T15:56:02;12.60;99.90
12504;DHT22;6316;48.118;-1.690;2024-03-23T15:58:29;12.60;99.90
12504;DHT22;6316;48.118;-1.690;2024-03-23T16:01:05;12.50;99.90
12504;DHT22;6316;48.118;-1.690;2024-03-23T16:03:32;12.50;99.90
12504;DHT22;6316;48.118;-1.690;2024-03-23T16:06:07;12.60;99.90
12504;DHT22;6316;48.118;-1.690;2024-03-23T16:08:33;12.70;99.90
12504;DHT22;6316;48.118;-1.690;2024-03-23T16:11:00;12.70;99.90
12504;DHT22;6316;48.118;-1.690;2024-03-23T16:13:26;12.70;99.90
12504;DHT22;6316;48.118;-1.690;2024-03-23T16:16:04;12.70;99.90
12504;DHT22;6316;48.118;-1.690;2024-03-23T16:18:37;12.70;99.90
12504;DHT22;6316;48.118;-1.690;2024-03-23T16:21:06;12.70;99.90
12504;DHT22;6316;48.118;-1.690;2024-03-23T16:23:33;12.70;99.90
12504;DHT22;6316;48.118;-1.690;2024-03-23T16:26:00;12.60;99.90
12504;DHT22;6316;48.118;-1.690;2024-03-23T16:28:34;12.60;99.90
12504;DHT22;6316;48.118;-1.690;2024-03-23T16:31:05;12.50;99.90
12504;DHT22;6316;48.118;-1.690;2024-03-23T16:33:37;12.50;99.90
12504;DHT22;6316;48.118;-1.690;2024-03-23T16:36:08;12.50;99.90
12504;DHT22;6316;48.118;-1.690;2024-03-23T16:38:41;12.50;99.90
12504;DHT22;6316;48.118;-1.690;2024-03-23T16:41:11;12.50;99.90